Elmhurst, New York
Current Conditions -  °F | °C
As of 8:51 PM on Friday 24 Oct 2014 (Local Time) from KLGA Reporting Station
Broken Clouds Broken Clouds  
Wind Chill: 57°   Ceiling: 25000
Heat Index: 57°   Visibility: 10mi
Dew Point: 46°   Wind: 7mph
Humidity: 67%   Direction: 200°SSW
Pressure: 29.81"   Gusts: NA
Location:  40.73°N, 73.86°W
Report Text: KLGA 250051Z 20006KT 10SM BKN250 14/08 A2981 RMK AO2 SLP095 T01390078
Loading
Personal Weather Stations






























Interactive Weather Map
Tropical Storm Tracking
New forecast layout! Learn more

10-Day Weather Forecast

Advertisements
Track Severe Weather on mobile